sensor_id;sensor_type;location;lat;lon;timestamp;P1;durP1;ratioP1;P2;durP2;ratioP2
53022;SDS011;38913;44.338;11.206;2023-06-26T00:01:40;5.83;;;4.40;;
53022;SDS011;38913;44.338;11.206;2023-06-26T00:04:06;4.95;;;4.03;;
53022;SDS011;38913;44.338;11.206;2023-06-26T00:06:32;4.87;;;3.93;;
53022;SDS011;38913;44.338;11.206;2023-06-26T00:08:57;4.50;;;3.70;;
53022;SDS011;38913;44.338;11.206;2023-06-26T00:11:23;6.30;;;4.32;;
53022;SDS011;38913;44.338;11.206;2023-06-26T00:13:49;4.43;;;3.80;;
53022;SDS011;38913;44.338;11.206;2023-06-26T00:16:15;4.68;;;3.80;;
53022;SDS011;38913;44.338;11.206;2023-06-26T00:18:40;5.75;;;3.95;;
53022;SDS011;38913;44.338;11.206;2023-06-26T00:23:40;5.80;;;4.03;;
53022;SDS011;38913;44.338;11.206;2023-06-26T00:26:05;6.00;;;3.70;;
53022;SDS011;38913;44.338;11.206;2023-06-26T00:28:31;5.40;;;3.80;;
53022;SDS011;38913;44.338;11.206;2023-06-26T00:30:56;5.67;;;4.07;;
53022;SDS011;38913;44.338;11.206;2023-06-26T00:33:21;5.57;;;4.05;;
53022;SDS011;38913;44.338;11.206;2023-06-26T00:35:47;7.20;;;3.80;;
53022;SDS011;38913;44.338;11.206;2023-06-26T00:38:12;5.00;;;3.88;;
53022;SDS011;38913;44.338;11.206;2023-06-26T00:40:38;6.20;;;3.90;;
53022;SDS011;38913;44.338;11.206;2023-06-26T00:43:03;4.43;;;3.58;;
53022;SDS011;38913;44.338;11.206;2023-06-26T00:45:28;5.47;;;3.67;;
53022;SDS011;38913;44.338;11.206;2023-06-26T00:47:54;5.30;;;4.07;;
53022;SDS011;38913;44.338;11.206;2023-06-26T00:50:20;6.80;;;4.03;;
53022;SDS011;38913;44.338;11.206;2023-06-26T00:52:45;5.93;;;3.70;;
53022;SDS011;38913;44.338;11.206;2023-06-26T00:55:11;5.82;;;3.88;;
53022;SDS011;38913;44.338;11.206;2023-06-26T00:57:37;4.32;;;3.85;;
53022;SDS011;38913;44.338;11.206;2023-06-26T01:00:03;4.82;;;4.07;;
53022;SDS011;38913;44.338;11.206;2023-06-26T01:02:29;5.03;;;4.22;;
53022;SDS011;38913;44.338;11.206;2023-06-26T01:04:58;4.95;;;3.70;;
53022;SDS011;38913;44.338;11.206;2023-06-26T01:07:24;6.70;;;3.90;;
53022;SDS011;38913;44.338;11.206;2023-06-26T01:09:50;4.72;;;3.83;;
53022;SDS011;38913;44.338;11.206;2023-06-26T01:12:15;5.50;;;4.10;;
53022;SDS011;38913;44.338;11.206;2023-06-26T01:14:40;6.17;;;4.47;;
53022;SDS011;38913;44.338;11.206;2023-06-26T01:17:06;5.25;;;4.00;;
53022;SDS011;38913;44.338;11.206;2023-06-26T01:19:32;5.10;;;3.95;;
53022;SDS011;38913;44.338;11.206;2023-06-26T01:24:39;5.32;;;3.72;;
53022;SDS011;38913;44.338;11.206;2023-06-26T01:27:05;5.97;;;4.32;;
53022;SDS011;38913;44.338;11.206;2023-06-26T01:29:31;5.15;;;3.90;;
53022;SDS011;38913;44.338;11.206;2023-06-26T01:31:58;5.47;;;4.40;;
53022;SDS011;38913;44.338;11.206;2023-06-26T01:34:25;5.25;;;4.00;;
53022;SDS011;38913;44.338;11.206;2023-06-26T01:36:50;5.60;;;3.55;;
53022;SDS011;38913;44.338;11.206;2023-06-26T01:39:18;5.93;;;4.07;;
53022;SDS011;38913;44.338;11.206;2023-06-26T01:41:43;4.57;;;4.13;;
53022;SDS011;38913;44.338;11.206;2023-06-26T01:44:28;4.87;;;3.70;;
53022;SDS011;38913;44.338;11.206;2023-06-26T01:52:09;6.28;;;3.58;;
53022;SDS011;38913;44.338;11.206;2023-06-26T01:54:44;6.73;;;4.00;;
53022;SDS011;38913;44.338;11.206;2023-06-26T01:57:12;5.30;;;4.00;;
53022;SDS011;38913;44.338;11.206;2023-06-26T01:59:38;5.97;;;3.95;;
53022;SDS011;38913;44.338;11.206;2023-06-26T02:02:08;5.93;;;4.30;;
53022;SDS011;38913;44.338;11.206;2023-06-26T02:04:33;6.03;;;3.85;;
53022;SDS011;38913;44.338;11.206;2023-06-26T02:06:59;5.72;;;3.85;;
53022;SDS011;38913;44.338;11.206;2023-06-26T02:09:24;6.93;;;4.37;;
53022;SDS011;38913;44.338;11.206;2023-06-26T02:11:50;5.97;;;4.50;;
53022;SDS011;38913;44.338;11.206;2023-06-26T02:14:15;4.83;;;3.97;;
53022;SDS011;38913;44.338;11.206;2023-06-26T02:16:40;6.05;;;4.07;;
53022;SDS011;38913;44.338;11.206;2023-06-26T02:19:05;5.65;;;4.28;;
53022;SDS011;38913;44.338;11.206;2023-06-26T02:21:31;6.43;;;3.70;;
53022;SDS011;38913;44.338;11.206;2023-06-26T02:23:59;4.77;;;4.03;;
53022;SDS011;38913;44.338;11.206;2023-06-26T02:26:25;6.07;;;4.80;;
53022;SDS011;38913;44.338;11.206;2023-06-26T02:28:50;5.33;;;4.20;;
53022;SDS011;38913;44.338;11.206;2023-06-26T02:31:15;5.88;;;4.40;;
53022;SDS011;38913;44.338;11.206;2023-06-26T02:33:41;7.80;;;4.73;;
53022;SDS011;38913;44.338;11.206;2023-06-26T02:36:06;5.60;;;4.35;;
53022;SDS011;38913;44.338;11.206;2023-06-26T02:38:31;7.07;;;4.37;;
53022;SDS011;38913;44.338;11.206;2023-06-26T02:40:57;6.78;;;4.60;;
53022;SDS011;38913;44.338;11.206;2023-06-26T02:43:22;6.03;;;4.40;;
53022;SDS011;38913;44.338;11.206;2023-06-26T02:45:47;6.20;;;4.10;;
53022;SDS011;38913;44.338;11.206;2023-06-26T02:48:13;5.88;;;4.40;;
53022;SDS011;38913;44.338;11.206;2023-06-26T02:50:38;4.72;;;4.25;;
53022;SDS011;38913;44.338;11.206;2023-06-26T02:53:03;5.85;;;4.15;;
53022;SDS011;38913;44.338;11.206;2023-06-26T02:55:29;6.40;;;4.07;;
53022;SDS011;38913;44.338;11.206;2023-06-26T02:57:54;5.90;;;4.27;;
53022;SDS011;38913;44.338;11.206;2023-06-26T03:00:19;5.65;;;4.35;;
53022;SDS011;38913;44.338;11.206;2023-06-26T03:02:45;5.30;;;4.32;;
53022;SDS011;38913;44.338;11.206;2023-06-26T03:05:10;6.65;;;4.18;;
53022;SDS011;38913;44.338;11.206;2023-06-26T03:07:38;4.50;;;4.07;;
53022;SDS011;38913;44.338;11.206;2023-06-26T03:10:03;5.07;;;4.20;;
53022;SDS011;38913;44.338;11.206;2023-06-26T03:12:28;4.95;;;3.97;;
53022;SDS011;38913;44.338;11.206;2023-06-26T03:14:54;6.70;;;4.70;;
53022;SDS011;38913;44.338;11.206;2023-06-26T03:17:19;6.63;;;4.20;;
53022;SDS011;38913;44.338;11.206;2023-06-26T03:19:44;6.10;;;4.43;;
53022;SDS011;38913;44.338;11.206;2023-06-26T03:22:10;4.97;;;4.10;;
53022;SDS011;38913;44.338;11.206;2023-06-26T03:24:35;5.95;;;4.40;;
53022;SDS011;38913;44.338;11.206;2023-06-26T03:27:00;5.50;;;4.27;;
53022;SDS011;38913;44.338;11.206;2023-06-26T03:29:26;6.90;;;5.38;;
53022;SDS011;38913;44.338;11.206;2023-06-26T03:31:51;5.80;;;4.77;;
53022;SDS011;38913;44.338;11.206;2023-06-26T03:34:16;5.30;;;4.13;;
53022;SDS011;38913;44.338;11.206;2023-06-26T03:36:42;4.93;;;3.72;;
53022;SDS011;38913;44.338;11.206;2023-06-26T03:39:07;6.60;;;4.22;;
53022;SDS011;38913;44.338;11.206;2023-06-26T03:41:32;5.80;;;4.20;;
53022;SDS011;38913;44.338;11.206;2023-06-26T03:43:58;6.95;;;3.90;;
53022;SDS011;38913;44.338;11.206;2023-06-26T03:46:25;5.13;;;4.15;;
53022;SDS011;38913;44.338;11.206;2023-06-26T03:48:50;5.03;;;4.07;;
53022;SDS011;38913;44.338;11.206;2023-06-26T03:51:16;4.93;;;3.95;;
53022;SDS011;38913;44.338;11.206;2023-06-26T03:53:41;5.40;;;4.07;;
53022;SDS011;38913;44.338;11.206;2023-06-26T03:56:06;7.03;;;4.07;;
53022;SDS011;38913;44.338;11.206;2023-06-26T03:58:32;4.60;;;3.97;;
53022;SDS011;38913;44.338;11.206;2023-06-26T04:03:32;6.70;;;4.57;;
53022;SDS011;38913;44.338;11.206;2023-06-26T04:05:57;5.43;;;4.25;;
53022;SDS011;38913;44.338;11.206;2023-06-26T04:08:26;6.32;;;4.22;;
53022;SDS011;38913;44.338;11.206;2023-06-26T04:10:51;5.20;;;4.03;;
53022;SDS011;38913;44.338;11.206;2023-06-26T04:13:17;6.47;;;4.57;;
53022;SDS011;38913;44.338;11.206;2023-06-26T04:15:42;6.13;;;3.92;;
53022;SDS011;38913;44.338;11.206;2023-06-26T04:18:08;6.07;;;4.38;;
53022;SDS011;38913;44.338;11.206;2023-06-26T04:20:37;6.32;;;4.32;;
53022;SDS011;38913;44.338;11.206;2023-06-26T04:23:03;4.90;;;3.53;;
53022;SDS011;38913;44.338;11.206;2023-06-26T04:25:28;5.07;;;3.47;;
53022;SDS011;38913;44.338;11.206;2023-06-26T04:27:54;4.75;;;3.55;;
53022;SDS011;38913;44.338;11.206;2023-06-26T04:30:19;6.18;;;3.50;;
53022;SDS011;38913;44.338;11.206;2023-06-26T04:32:44;4.53;;;3.10;;
53022;SDS011;38913;44.338;11.206;2023-06-26T04:35:10;3.80;;;3.33;;
53022;SDS011;38913;44.338;11.206;2023-06-26T04:37:35;3.65;;;3.22;;
53022;SDS011;38913;44.338;11.206;2023-06-26T04:40:01;4.03;;;2.90;;
53022;SDS011;38913;44.338;11.206;2023-06-26T04:42:28;3.65;;;3.20;;
53022;SDS011;38913;44.338;11.206;2023-06-26T04:44:54;5.03;;;3.23;;
53022;SDS011;38913;44.338;11.206;2023-06-26T04:47:19;3.90;;;3.20;;
53022;SDS011;38913;44.338;11.206;2023-06-26T04:49:44;4.73;;;3.40;;
53022;SDS011;38913;44.338;11.206;2023-06-26T04:52:10;4.22;;;3.20;;
53022;SDS011;38913;44.338;11.206;2023-06-26T04:54:38;3.85;;;2.90;;
53022;SDS011;38913;44.338;11.206;2023-06-26T04:57:03;4.87;;;3.20;;
53022;SDS011;38913;44.338;11.206;2023-06-26T04:59:29;4.97;;;2.97;;
53022;SDS011;38913;44.338;11.206;2023-06-26T05:01:54;4.10;;;2.80;;
53022;SDS011;38913;44.338;11.206;2023-06-26T05:04:19;3.00;;;2.53;;
53022;SDS011;38913;44.338;11.206;2023-06-26T05:06:45;3.53;;;2.60;;
53022;SDS011;38913;44.338;11.206;2023-06-26T05:09:10;4.47;;;2.70;;
53022;SDS011;38913;44.338;11.206;2023-06-26T05:11:36;4.28;;;3.05;;
53022;SDS011;38913;44.338;11.206;2023-06-26T05:14:01;3.30;;;2.90;;
53022;SDS011;38913;44.338;11.206;2023-06-26T05:16:26;3.05;;;2.72;;
53022;SDS011;38913;44.338;11.206;2023-06-26T05:18:52;3.20;;;2.90;;
53022;SDS011;38913;44.338;11.206;2023-06-26T05:21:19;3.20;;;2.78;;
53022;SDS011;38913;44.338;11.206;2023-06-26T05:23:44;3.72;;;2.95;;
53022;SDS011;38913;44.338;11.206;2023-06-26T05:26:10;4.00;;;3.17;;
53022;SDS011;38913;44.338;11.206;2023-06-26T05:28:36;3.78;;;2.70;;
53022;SDS011;38913;44.338;11.206;2023-06-26T05:31:01;3.95;;;2.83;;
53022;SDS011;38913;44.338;11.206;2023-06-26T05:33:28;3.53;;;3.08;;
53022;SDS011;38913;44.338;11.206;2023-06-26T05:35:53;3.72;;;3.00;;
53022;SDS011;38913;44.338;11.206;2023-06-26T05:38:19;3.53;;;2.78;;
53022;SDS011;38913;44.338;11.206;2023-06-26T05:40:44;4.03;;;3.17;;
53022;SDS011;38913;44.338;11.206;2023-06-26T05:43:09;3.47;;;2.80;;
53022;SDS011;38913;44.338;11.206;2023-06-26T05:45:36;5.45;;;3.20;;
53022;SDS011;38913;44.338;11.206;2023-06-26T05:48:01;11.20;;;3.00;;
53022;SDS011;38913;44.338;11.206;2023-06-26T05:50:27;3.50;;;2.80;;
53022;SDS011;38913;44.338;11.206;2023-06-26T05:52:53;3.10;;;2.80;;
53022;SDS011;38913;44.338;11.206;2023-06-26T05:55:18;4.25;;;2.90;;
53022;SDS011;38913;44.338;11.206;2023-06-26T05:57:44;3.15;;;2.72;;
53022;SDS011;38913;44.338;11.206;2023-06-26T06:00:10;3.92;;;2.80;;
53022;SDS011;38913;44.338;11.206;2023-06-26T06:02:36;3.10;;;2.72;;
53022;SDS011;38913;44.338;11.206;2023-06-26T06:05:02;4.55;;;3.50;;
53022;SDS011;38913;44.338;11.206;2023-06-26T06:07:27;3.28;;;2.90;;
53022;SDS011;38913;44.338;11.206;2023-06-26T06:09:52;3.07;;;2.80;;
53022;SDS011;38913;44.338;11.206;2023-06-26T06:12:18;52.87;;;7.97;;
53022;SDS011;38913;44.338;11.206;2023-06-26T06:14:43;3.30;;;3.00;;
53022;SDS011;38913;44.338;11.206;2023-06-26T06:17:08;3.03;;;2.83;;
53022;SDS011;38913;44.338;11.206;2023-06-26T06:19:33;3.23;;;2.93;;
53022;SDS011;38913;44.338;11.206;2023-06-26T06:21:59;3.60;;;2.97;;
53022;SDS011;38913;44.338;11.206;2023-06-26T06:24:24;2.77;;;2.57;;
53022;SDS011;38913;44.338;11.206;2023-06-26T06:26:49;3.13;;;2.80;;
53022;SDS011;38913;44.338;11.206;2023-06-26T06:29:14;4.33;;;3.03;;
53022;SDS011;38913;44.338;11.206;2023-06-26T06:31:40;3.10;;;2.80;;
53022;SDS011;38913;44.338;11.206;2023-06-26T06:34:08;2.97;;;2.77;;
53022;SDS011;38913;44.338;11.206;2023-06-26T06:36:33;3.15;;;2.63;;
53022;SDS011;38913;44.338;11.206;2023-06-26T06:38:58;3.08;;;2.78;;
53022;SDS011;38913;44.338;11.206;2023-06-26T06:41:24;3.10;;;2.80;;
53022;SDS011;38913;44.338;11.206;2023-06-26T06:43:49;3.30;;;3.00;;
53022;SDS011;38913;44.338;11.206;2023-06-26T06:46:14;3.40;;;2.67;;
53022;SDS011;38913;44.338;11.206;2023-06-26T06:48:39;3.00;;;2.70;;
53022;SDS011;38913;44.338;11.206;2023-06-26T06:51:05;3.70;;;2.70;;
53022;SDS011;38913;44.338;11.206;2023-06-26T06:53:30;3.20;;;2.83;;
53022;SDS011;38913;44.338;11.206;2023-06-26T06:55:56;3.05;;;2.80;;
53022;SDS011;38913;44.338;11.206;2023-06-26T06:58:21;2.70;;;2.50;;
53022;SDS011;38913;44.338;11.206;2023-06-26T07:00:47;3.72;;;2.60;;
53022;SDS011;38913;44.338;11.206;2023-06-26T07:03:13;3.03;;;2.72;;
53022;SDS011;38913;44.338;11.206;2023-06-26T07:05:38;2.70;;;2.50;;
53022;SDS011;38913;44.338;11.206;2023-06-26T07:08:04;3.20;;;2.90;;
53022;SDS011;38913;44.338;11.206;2023-06-26T07:10:29;3.40;;;3.10;;
53022;SDS011;38913;44.338;11.206;2023-06-26T07:12:54;4.05;;;3.20;;
53022;SDS011;38913;44.338;11.206;2023-06-26T07:15:20;3.40;;;3.10;;
53022;SDS011;38913;44.338;11.206;2023-06-26T07:17:45;4.30;;;4.00;;
53022;SDS011;38913;44.338;11.206;2023-06-26T07:20:10;3.90;;;3.70;;
53022;SDS011;38913;44.338;11.206;2023-06-26T07:22:40;4.88;;;4.50;;
53022;SDS011;38913;44.338;11.206;2023-06-26T07:25:05;5.17;;;4.87;;
53022;SDS011;38913;44.338;11.206;2023-06-26T07:27:34;5.40;;;5.10;;
53022;SDS011;38913;44.338;11.206;2023-06-26T07:29:59;5.47;;;5.17;;
53022;SDS011;38913;44.338;11.206;2023-06-26T07:32:24;5.57;;;5.17;;
53022;SDS011;38913;44.338;11.206;2023-06-26T07:34:49;4.70;;;4.40;;
53022;SDS011;38913;44.338;11.206;2023-06-26T07:37:15;3.93;;;3.63;;
53022;SDS011;38913;44.338;11.206;2023-06-26T07:39:40;3.30;;;3.10;;
53022;SDS011;38913;44.338;11.206;2023-06-26T07:42:05;3.30;;;3.00;;
53022;SDS011;38913;44.338;11.206;2023-06-26T07:44:30;2.93;;;2.60;;
53022;SDS011;38913;44.338;11.206;2023-06-26T07:46:56;2.80;;;2.60;;
53022;SDS011;38913;44.338;11.206;2023-06-26T07:49:21;3.17;;;2.87;;
53022;SDS011;38913;44.338;11.206;2023-06-26T07:51:46;4.18;;;2.60;;
53022;SDS011;38913;44.338;11.206;2023-06-26T07:54:12;3.13;;;2.77;;
53022;SDS011;38913;44.338;11.206;2023-06-26T07:56:53;4.28;;;2.95;;
53022;SDS011;38913;44.338;11.206;2023-06-26T07:59:23;3.20;;;2.90;;
53022;SDS011;38913;44.338;11.206;2023-06-26T08:01:50;3.78;;;2.83;;
53022;SDS011;38913;44.338;11.206;2023-06-26T08:04:17;3.30;;;3.00;;
53022;SDS011;38913;44.338;11.206;2023-06-26T08:06:48;3.15;;;2.83;;
53022;SDS011;38913;44.338;11.206;2023-06-26T08:09:15;3.22;;;2.92;;
53022;SDS011;38913;44.338;11.206;2023-06-26T08:11:41;4.75;;;3.00;;
53022;SDS011;38913;44.338;11.206;2023-06-26T08:14:07;4.43;;;3.20;;
53022;SDS011;38913;44.338;11.206;2023-06-26T08:16:32;3.50;;;2.90;;
53022;SDS011;38913;44.338;11.206;2023-06-26T08:18:57;3.45;;;3.15;;
53022;SDS011;38913;44.338;11.206;2023-06-26T08:21:22;3.10;;;2.80;;
53022;SDS011;38913;44.338;11.206;2023-06-26T08:23:48;3.63;;;2.75;;
53022;SDS011;38913;44.338;11.206;2023-06-26T08:26:13;4.47;;;3.10;;
53022;SDS011;38913;44.338;11.206;2023-06-26T08:28:39;4.50;;;3.30;;
53022;SDS011;38913;44.338;11.206;2023-06-26T08:31:04;3.42;;;3.13;;
53022;SDS011;38913;44.338;11.206;2023-06-26T08:33:30;4.28;;;2.78;;
53022;SDS011;38913;44.338;11.206;2023-06-26T08:35:55;3.30;;;3.00;;
53022;SDS011;38913;44.338;11.206;2023-06-26T08:38:20;3.95;;;3.38;;
53022;SDS011;38913;44.338;11.206;2023-06-26T08:40:46;3.72;;;3.40;;
53022;SDS011;38913;44.338;11.206;2023-06-26T08:43:12;3.50;;;2.97;;
53022;SDS011;38913;44.338;11.206;2023-06-26T08:45:37;3.50;;;3.13;;
53022;SDS011;38913;44.338;11.206;2023-06-26T08:48:03;3.58;;;3.28;;
53022;SDS011;38913;44.338;11.206;2023-06-26T08:50:33;3.55;;;3.10;;
53022;SDS011;38913;44.338;11.206;2023-06-26T08:55:32;4.47;;;2.95;;
53022;SDS011;38913;44.338;11.206;2023-06-26T08:58:01;6.22;;;3.05;;
53022;SDS011;38913;44.338;11.206;2023-06-26T09:00:26;3.90;;;2.97;;
53022;SDS011;38913;44.338;11.206;2023-06-26T09:02:52;3.25;;;3.00;;
53022;SDS011;38913;44.338;11.206;2023-06-26T09:05:17;3.33;;;3.00;;
53022;SDS011;38913;44.338;11.206;2023-06-26T09:07:44;3.95;;;2.83;;
53022;SDS011;38913;44.338;11.206;2023-06-26T09:10:09;3.13;;;2.83;;
53022;SDS011;38913;44.338;11.206;2023-06-26T09:12:35;4.10;;;3.30;;
53022;SDS011;38913;44.338;11.206;2023-06-26T09:15:01;3.05;;;2.75;;
53022;SDS011;38913;44.338;11.206;2023-06-26T09:17:32;3.97;;;3.30;;
53022;SDS011;38913;44.338;11.206;2023-06-26T09:20:03;3.10;;;2.80;;
53022;SDS011;38913;44.338;11.206;2023-06-26T09:22:28;4.13;;;3.03;;
53022;SDS011;38913;44.338;11.206;2023-06-26T09:24:55;3.60;;;3.30;;
53022;SDS011;38913;44.338;11.206;2023-06-26T09:27:20;3.92;;;3.38;;
53022;SDS011;38913;44.338;11.206;2023-06-26T09:29:46;4.57;;;3.50;;
53022;SDS011;38913;44.338;11.206;2023-06-26T09:32:12;3.75;;;3.10;;
53022;SDS011;38913;44.338;11.206;2023-06-26T09:34:40;5.45;;;3.40;;
53022;SDS011;38913;44.338;11.206;2023-06-26T09:37:07;4.03;;;3.20;;
53022;SDS011;38913;44.338;11.206;2023-06-26T09:39:33;3.90;;;3.40;;
53022;SDS011;38913;44.338;11.206;2023-06-26T09:41:58;5.35;;;3.22;;
53022;SDS011;38913;44.338;11.206;2023-06-26T09:44:24;5.47;;;3.72;;
53022;SDS011;38913;44.338;11.206;2023-06-26T09:46:49;3.95;;;3.55;;
53022;SDS011;38913;44.338;11.206;2023-06-26T09:49:15;3.88;;;3.38;;
53022;SDS011;38913;44.338;11.206;2023-06-26T09:51:41;3.97;;;3.58;;
53022;SDS011;38913;44.338;11.206;2023-06-26T09:54:06;3.80;;;3.35;;
53022;SDS011;38913;44.338;11.206;2023-06-26T09:56:33;3.40;;;3.10;;
53022;SDS011;38913;44.338;11.206;2023-06-26T09:58:59;4.00;;;3.38;;
53022;SDS011;38913;44.338;11.206;2023-06-26T10:01:26;4.43;;;3.50;;
53022;SDS011;38913;44.338;11.206;2023-06-26T10:03:51;4.30;;;3.90;;
53022;SDS011;38913;44.338;11.206;2023-06-26T10:06:19;4.95;;;3.47;;
53022;SDS011;38913;44.338;11.206;2023-06-26T10:08:44;4.78;;;3.30;;
53022;SDS011;38913;44.338;11.206;2023-06-26T10:11:11;5.00;;;3.75;;
53022;SDS011;38913;44.338;11.206;2023-06-26T10:13:42;4.38;;;3.50;;
53022;SDS011;38913;44.338;11.206;2023-06-26T10:16:07;3.90;;;3.50;;
53022;SDS011;38913;44.338;11.206;2023-06-26T10:18:33;4.93;;;3.63;;
53022;SDS011;38913;44.338;11.206;2023-06-26T10:21:01;3.55;;;3.22;;
53022;SDS011;38913;44.338;11.206;2023-06-26T10:23:28;4.15;;;3.60;;
53022;SDS011;38913;44.338;11.206;2023-06-26T10:25:55;4.57;;;3.70;;
53022;SDS011;38913;44.338;11.206;2023-06-26T10:28:24;4.00;;;3.60;;
53022;SDS011;38913;44.338;11.206;2023-06-26T10:30:50;4.22;;;3.60;;
53022;SDS011;38913;44.338;11.206;2023-06-26T10:33:16;3.78;;;3.22;;
53022;SDS011;38913;44.338;11.206;2023-06-26T10:35:44;4.43;;;3.75;;
53022;SDS011;38913;44.338;11.206;2023-06-26T10:38:10;7.13;;;3.80;;
53022;SDS011;38913;44.338;11.206;2023-06-26T10:40:43;4.45;;;3.72;;
53022;SDS011;38913;44.338;11.206;2023-06-26T10:43:10;6.53;;;4.03;;
53022;SDS011;38913;44.338;11.206;2023-06-26T10:45:37;4.88;;;3.53;;
53022;SDS011;38913;44.338;11.206;2023-06-26T10:48:09;4.90;;;3.75;;
53022;SDS011;38913;44.338;11.206;2023-06-26T10:50:35;4.65;;;3.92;;
53022;SDS011;38913;44.338;11.206;2023-06-26T10:55:32;5.90;;;3.42;;
53022;SDS011;38913;44.338;11.206;2023-06-26T10:57:58;6.13;;;3.60;;
53022;SDS011;38913;44.338;11.206;2023-06-26T11:00:23;5.68;;;3.90;;
53022;SDS011;38913;44.338;11.206;2023-06-26T11:02:49;4.10;;;3.70;;
53022;SDS011;38913;44.338;11.206;2023-06-26T11:05:23;5.30;;;4.07;;
53022;SDS011;38913;44.338;11.206;2023-06-26T11:08:06;4.20;;;3.50;;
53022;SDS011;38913;44.338;11.206;2023-06-26T11:10:49;4.10;;;3.70;;
53022;SDS011;38913;44.338;11.206;2023-06-26T11:13:16;5.38;;;4.03;;
53022;SDS011;38913;44.338;11.206;2023-06-26T11:15:43;4.93;;;4.30;;
53022;SDS011;38913;44.338;11.206;2023-06-26T11:18:12;4.28;;;3.65;;
53022;SDS011;38913;44.338;11.206;2023-06-26T11:20:37;5.40;;;3.88;;
53022;SDS011;38913;44.338;11.206;2023-06-26T11:23:03;3.70;;;3.40;;
53022;SDS011;38913;44.338;11.206;2023-06-26T11:25:34;4.57;;;3.75;;
53022;SDS011;38913;44.338;11.206;2023-06-26T11:28:00;3.97;;;3.60;;
53022;SDS011;38913;44.338;11.206;2023-06-26T11:30:25;4.63;;;3.73;;
53022;SDS011;38913;44.338;11.206;2023-06-26T11:32:51;4.60;;;3.67;;
53022;SDS011;38913;44.338;11.206;2023-06-26T11:35:23;5.15;;;3.83;;
53022;SDS011;38913;44.338;11.206;2023-06-26T11:37:55;6.65;;;4.22;;
53022;SDS011;38913;44.338;11.206;2023-06-26T11:40:22;4.70;;;3.63;;
53022;SDS011;38913;44.338;11.206;2023-06-26T11:42:52;5.40;;;3.63;;
53022;SDS011;38913;44.338;11.206;2023-06-26T11:45:17;4.80;;;3.67;;
53022;SDS011;38913;44.338;11.206;2023-06-26T11:47:43;5.20;;;3.95;;
53022;SDS011;38913;44.338;11.206;2023-06-26T11:50:14;3.92;;;3.53;;
53022;SDS011;38913;44.338;11.206;2023-06-26T11:52:43;4.78;;;3.78;;
53022;SDS011;38913;44.338;11.206;2023-06-26T11:55:09;4.25;;;3.85;;
53022;SDS011;38913;44.338;11.206;2023-06-26T11:57:35;13.40;;;5.90;;
53022;SDS011;38913;44.338;11.206;2023-06-26T12:00:14;5.35;;;4.07;;
53022;SDS011;38913;44.338;11.206;2023-06-26T12:02:39;5.20;;;4.15;;
53022;SDS011;38913;44.338;11.206;2023-06-26T12:05:05;5.13;;;4.18;;
53022;SDS011;38913;44.338;11.206;2023-06-26T12:07:32;4.78;;;4.10;;
53022;SDS011;38913;44.338;11.206;2023-06-26T12:09:57;4.78;;;3.90;;
53022;SDS011;38913;44.338;11.206;2023-06-26T12:12:23;6.53;;;4.20;;
53022;SDS011;38913;44.338;11.206;2023-06-26T12:14:51;4.38;;;3.97;;
53022;SDS011;38913;44.338;11.206;2023-06-26T12:17:16;4.18;;;3.78;;
53022;SDS011;38913;44.338;11.206;2023-06-26T12:19:45;5.03;;;3.80;;
53022;SDS011;38913;44.338;11.206;2023-06-26T12:22:15;4.18;;;3.78;;
53022;SDS011;38913;44.338;11.206;2023-06-26T12:24:41;4.35;;;3.90;;
53022;SDS011;38913;44.338;11.206;2023-06-26T12:27:12;4.20;;;3.80;;
53022;SDS011;38913;44.338;11.206;2023-06-26T12:29:38;5.25;;;3.90;;
53022;SDS011;38913;44.338;11.206;2023-06-26T12:32:04;5.22;;;4.05;;
53022;SDS011;38913;44.338;11.206;2023-06-26T12:34:33;6.95;;;4.38;;
53022;SDS011;38913;44.338;11.206;2023-06-26T12:37:02;4.35;;;3.88;;
53022;SDS011;38913;44.338;11.206;2023-06-26T12:39:28;4.43;;;4.03;;
53022;SDS011;38913;44.338;11.206;2023-06-26T12:41:57;4.75;;;4.25;;
53022;SDS011;38913;44.338;11.206;2023-06-26T12:44:26;4.30;;;3.60;;
53022;SDS011;38913;44.338;11.206;2023-06-26T12:46:58;4.70;;;3.88;;
53022;SDS011;38913;44.338;11.206;2023-06-26T12:51:55;4.95;;;3.78;;
53022;SDS011;38913;44.338;11.206;2023-06-26T12:54:20;4.47;;;4.00;;
53022;SDS011;38913;44.338;11.206;2023-06-26T12:56:46;6.20;;;4.10;;
53022;SDS011;38913;44.338;11.206;2023-06-26T12:59:11;4.37;;;3.90;;
53022;SDS011;38913;44.338;11.206;2023-06-26T13:01:36;4.07;;;3.60;;
53022;SDS011;38913;44.338;11.206;2023-06-26T13:04:02;4.50;;;3.67;;
53022;SDS011;38913;44.338;11.206;2023-06-26T13:06:28;4.10;;;3.70;;
53022;SDS011;38913;44.338;11.206;2023-06-26T13:08:53;4.40;;;3.70;;
53022;SDS011;38913;44.338;11.206;2023-06-26T13:11:19;4.22;;;3.55;;
53022;SDS011;38913;44.338;11.206;2023-06-26T13:13:44;3.77;;;3.40;;
53022;SDS011;38913;44.338;11.206;2023-06-26T13:16:09;4.40;;;4.00;;
53022;SDS011;38913;44.338;11.206;2023-06-26T13:18:34;4.57;;;3.73;;
53022;SDS011;38913;44.338;11.206;2023-06-26T13:21:00;4.87;;;4.13;;
53022;SDS011;38913;44.338;11.206;2023-06-26T13:23:25;3.95;;;3.40;;
53022;SDS011;38913;44.338;11.206;2023-06-26T13:25:51;4.10;;;3.70;;
53022;SDS011;38913;44.338;11.206;2023-06-26T13:28:16;4.40;;;3.70;;
53022;SDS011;38913;44.338;11.206;2023-06-26T13:30:42;3.53;;;3.20;;
53022;SDS011;38913;44.338;11.206;2023-06-26T13:33:07;4.77;;;3.40;;
53022;SDS011;38913;44.338;11.206;2023-06-26T13:35:32;4.67;;;3.63;;
53022;SDS011;38913;44.338;11.206;2023-06-26T13:37:57;4.83;;;3.90;;
53022;SDS011;38913;44.338;11.206;2023-06-26T13:40:23;4.03;;;3.60;;
53022;SDS011;38913;44.338;11.206;2023-06-26T13:42:48;4.57;;;3.77;;
53022;SDS011;38913;44.338;11.206;2023-06-26T13:45:13;3.88;;;3.47;;
53022;SDS011;38913;44.338;11.206;2023-06-26T13:47:39;5.28;;;3.72;;
53022;SDS011;38913;44.338;11.206;2023-06-26T13:50:07;3.88;;;3.38;;
53022;SDS011;38913;44.338;11.206;2023-06-26T13:52:32;6.18;;;3.72;;
53022;SDS011;38913;44.338;11.206;2023-06-26T13:54:57;4.17;;;3.47;;
53022;SDS011;38913;44.338;11.206;2023-06-26T13:57:32;5.30;;;3.65;;
53022;SDS011;38913;44.338;11.206;2023-06-26T13:59:57;5.40;;;3.80;;
53022;SDS011;38913;44.338;11.206;2023-06-26T14:02:23;4.60;;;3.47;;
53022;SDS011;38913;44.338;11.206;2023-06-26T14:04:48;3.88;;;3.40;;
53022;SDS011;38913;44.338;11.206;2023-06-26T14:07:13;5.10;;;3.60;;
53022;SDS011;38913;44.338;11.206;2023-06-26T14:09:39;5.97;;;3.80;;
53022;SDS011;38913;44.338;11.206;2023-06-26T14:12:07;5.05;;;3.70;;
53022;SDS011;38913;44.338;11.206;2023-06-26T14:14:33;4.65;;;3.40;;
53022;SDS011;38913;44.338;11.206;2023-06-26T14:16:58;5.97;;;3.85;;
53022;SDS011;38913;44.338;11.206;2023-06-26T14:19:24;3.85;;;3.45;;
53022;SDS011;38913;44.338;11.206;2023-06-26T14:21:49;4.95;;;4.10;;
53022;SDS011;38913;44.338;11.206;2023-06-26T14:24:14;4.57;;;3.77;;
53022;SDS011;38913;44.338;11.206;2023-06-26T14:26:40;4.33;;;3.70;;
53022;SDS011;38913;44.338;11.206;2023-06-26T14:29:05;3.97;;;3.58;;
53022;SDS011;38913;44.338;11.206;2023-06-26T14:31:31;5.85;;;3.58;;
53022;SDS011;38913;44.338;11.206;2023-06-26T14:33:56;4.35;;;3.70;;
53022;SDS011;38913;44.338;11.206;2023-06-26T14:36:21;5.00;;;4.23;;
53022;SDS011;38913;44.338;11.206;2023-06-26T14:38:47;4.10;;;3.67;;
53022;SDS011;38913;44.338;11.206;2023-06-26T14:41:12;4.30;;;3.70;;
53022;SDS011;38913;44.338;11.206;2023-06-26T14:43:40;4.73;;;4.23;;
53022;SDS011;38913;44.338;11.206;2023-06-26T14:46:06;4.50;;;3.90;;
53022;SDS011;38913;44.338;11.206;2023-06-26T14:48:31;5.85;;;3.85;;